sensor_id;sensor_type;location;lat;lon;timestamp;pressure;altitude;pressure_sealevel;temperature;humidity
11395;BME280;5753;54.402;10.220;2023-02-18T00:01:16;101420.53;;;11.94;61.31
11395;BME280;5753;54.402;10.220;2023-02-18T00:03:43;101418.16;;;11.25;62.75
11395;BME280;5753;54.402;10.220;2023-02-18T00:06:18;101407.63;;;12.41;60.29
11395;BME280;5753;54.402;10.220;2023-02-18T00:08:45;101406.38;;;11.77;62.10
11395;BME280;5753;54.402;10.220;2023-02-18T00:11:12;101403.91;;;11.82;62.93
11395;BME280;5753;54.402;10.220;2023-02-18T00:13:38;101395.66;;;11.59;63.30
11395;BME280;5753;54.402;10.220;2023-02-18T00:16:07;101405.03;;;10.79;66.18
11395;BME280;5753;54.402;10.220;2023-02-18T00:18:34;101408.91;;;12.18;61.92
11395;BME280;5753;54.402;10.220;2023-02-18T00:21:03;101412.31;;;11.73;62.93
11395;BME280;5753;54.402;10.220;2023-02-18T00:23:30;101409.38;;;12.42;61.12
11395;BME280;5753;54.402;10.220;2023-02-18T00:26:06;101408.34;;;11.87;63.09
11395;BME280;5753;54.402;10.220;2023-02-18T00:28:33;101417.31;;;12.54;60.96
11395;BME280;5753;54.402;10.220;2023-02-18T00:31:04;101428.31;;;12.41;62.15
11395;BME280;5753;54.402;10.220;2023-02-18T00:33:30;101432.19;;;11.77;62.80
11395;BME280;5753;54.402;10.220;2023-02-18T00:36:02;101426.50;;;11.90;63.05
11395;BME280;5753;54.402;10.220;2023-02-18T00:38:29;101432.75;;;11.62;63.26
11395;BME280;5753;54.402;10.220;2023-02-18T00:40:55;101438.78;;;11.63;64.42
11395;BME280;5753;54.402;10.220;2023-02-18T00:43:22;101446.03;;;11.79;62.91
11395;BME280;5753;54.402;10.220;2023-02-18T00:45:48;101439.59;;;12.46;61.90
11395;BME280;5753;54.402;10.220;2023-02-18T00:48:14;101446.38;;;11.94;63.19
11395;BME280;5753;54.402;10.220;2023-02-18T00:50:40;101444.66;;;11.95;62.50
11395;BME280;5753;54.402;10.220;2023-02-18T00:53:07;101450.03;;;11.27;65.24
11395;BME280;5753;54.402;10.220;2023-02-18T00:55:37;101454.63;;;12.20;63.52
11395;BME280;5753;54.402;10.220;2023-02-18T00:58:03;101447.66;;;10.99;66.51
11395;BME280;5753;54.402;10.220;2023-02-18T01:00:29;101436.56;;;11.80;64.41
11395;BME280;5753;54.402;10.220;2023-02-18T01:02:56;101454.16;;;11.57;65.27
11395;BME280;5753;54.402;10.220;2023-02-18T01:05:22;101435.09;;;11.91;63.63
11395;BME280;5753;54.402;10.220;2023-02-18T01:07:48;101421.75;;;12.13;62.79
11395;BME280;5753;54.402;10.220;2023-02-18T01:10:15;101423.63;;;11.78;65.03
11395;BME280;5753;54.402;10.220;2023-02-18T01:12:41;101426.16;;;11.36;67.20
11395;BME280;5753;54.402;10.220;2023-02-18T01:15:08;101415.13;;;11.04;66.27
11395;BME280;5753;54.402;10.220;2023-02-18T01:17:34;101429.94;;;11.52;64.36
11395;BME280;5753;54.402;10.220;2023-02-18T01:20:00;101432.41;;;11.08;67.06
11395;BME280;5753;54.402;10.220;2023-02-18T01:22:26;101425.84;;;10.86;67.40
11395;BME280;5753;54.402;10.220;2023-02-18T01:24:53;101427.44;;;11.95;63.60
11395;BME280;5753;54.402;10.220;2023-02-18T01:27:19;101430.78;;;11.51;65.67
11395;BME280;5753;54.402;10.220;2023-02-18T01:29:45;101431.84;;;11.60;63.91
11395;BME280;5753;54.402;10.220;2023-02-18T01:32:11;101427.44;;;11.95;62.89
11395;BME280;5753;54.402;10.220;2023-02-18T01:34:37;101420.28;;;12.27;60.10
11395;BME280;5753;54.402;10.220;2023-02-18T01:37:03;101428.91;;;11.83;61.91
11395;BME280;5753;54.402;10.220;2023-02-18T01:39:30;101439.06;;;12.17;61.00
11395;BME280;5753;54.402;10.220;2023-02-18T01:41:56;101426.53;;;11.93;60.86
11395;BME280;5753;54.402;10.220;2023-02-18T01:44:25;101442.31;;;11.66;61.14
11395;BME280;5753;54.402;10.220;2023-02-18T01:46:52;101426.66;;;12.46;59.12
11395;BME280;5753;54.402;10.220;2023-02-18T01:49:29;101441.63;;;11.75;61.13
11395;BME280;5753;54.402;10.220;2023-02-18T01:52:01;101436.97;;;12.43;60.50
11395;BME280;5753;54.402;10.220;2023-02-18T01:54:49;101425.06;;;13.07;58.19
11395;BME280;5753;54.402;10.220;2023-02-18T01:57:21;101426.56;;;11.95;61.59
11395;BME280;5753;54.402;10.220;2023-02-18T01:59:49;101423.78;;;11.84;61.51
11395;BME280;5753;54.402;10.220;2023-02-18T02:02:20;101431.06;;;12.05;62.27
11395;BME280;5753;54.402;10.220;2023-02-18T02:04:47;101431.44;;;12.75;60.46
11395;BME280;5753;54.402;10.220;2023-02-18T02:07:15;101438.41;;;12.77;58.99
11395;BME280;5753;54.402;10.220;2023-02-18T02:09:42;101428.47;;;12.50;60.84
11395;BME280;5753;54.402;10.220;2023-02-18T02:12:35;101428.09;;;12.79;59.69
11395;BME280;5753;54.402;10.220;2023-02-18T02:15:07;101423.13;;;12.41;61.07
11395;BME280;5753;54.402;10.220;2023-02-18T02:34:56;101412.63;;;13.38;59.32
11395;BME280;5753;54.402;10.220;2023-02-18T02:40:34;101420.81;;;12.10;63.60
11395;BME280;5753;54.402;10.220;2023-02-18T02:53:45;101414.66;;;11.61;66.30
11395;BME280;5753;54.402;10.220;2023-02-18T02:56:19;101408.16;;;13.28;60.88
11395;BME280;5753;54.402;10.220;2023-02-18T02:59:08;101409.56;;;12.54;61.80
11395;BME280;5753;54.402;10.220;2023-02-18T03:04:21;101416.38;;;12.03;62.88
11395;BME280;5753;54.402;10.220;2023-02-18T03:17:25;101433.31;;;11.48;66.01
11395;BME280;5753;54.402;10.220;2023-02-18T03:20:18;101423.25;;;13.59;59.18
11395;BME280;5753;54.402;10.220;2023-02-18T03:22:47;101422.25;;;12.41;61.75
11395;BME280;5753;54.402;10.220;2023-02-18T03:25:16;101424.31;;;11.71;63.80
11395;BME280;5753;54.402;10.220;2023-02-18T03:27:51;101421.28;;;12.34;62.97
11395;BME280;5753;54.402;10.220;2023-02-18T03:30:38;101423.16;;;11.57;65.51
11395;BME280;5753;54.402;10.220;2023-02-18T03:33:07;101406.06;;;12.04;63.92
11395;BME280;5753;54.402;10.220;2023-02-18T03:35:36;101406.16;;;12.57;62.92
11395;BME280;5753;54.402;10.220;2023-02-18T03:38:14;101405.66;;;12.28;62.84
11395;BME280;5753;54.402;10.220;2023-02-18T03:40:43;101403.88;;;13.30;60.15
11395;BME280;5753;54.402;10.220;2023-02-18T03:43:09;101408.53;;;11.96;64.23
11395;BME280;5753;54.402;10.220;2023-02-18T03:45:35;101414.38;;;12.84;61.78
11395;BME280;5753;54.402;10.220;2023-02-18T03:48:02;101403.91;;;12.27;62.49
11395;BME280;5753;54.402;10.220;2023-02-18T03:50:28;101408.06;;;12.69;61.35
11395;BME280;5753;54.402;10.220;2023-02-18T03:52:54;101401.13;;;12.16;63.82
11395;BME280;5753;54.402;10.220;2023-02-18T03:55:20;101397.03;;;13.35;60.35
11395;BME280;5753;54.402;10.220;2023-02-18T03:57:46;101401.06;;;11.71;63.67
11395;BME280;5753;54.402;10.220;2023-02-18T04:00:13;101410.31;;;10.83;70.85
11395;BME280;5753;54.402;10.220;2023-02-18T04:02:40;101406.69;;;11.50;69.10
11395;BME280;5753;54.402;10.220;2023-02-18T04:05:06;101422.13;;;11.49;69.42
11395;BME280;5753;54.402;10.220;2023-02-18T04:07:33;101398.78;;;10.69;73.29
11395;BME280;5753;54.402;10.220;2023-02-18T04:09:59;101402.97;;;11.00;75.19
11395;BME280;5753;54.402;10.220;2023-02-18T04:12:25;101400.28;;;10.59;81.09
11395;BME280;5753;54.402;10.220;2023-02-18T04:14:51;101404.06;;;10.73;80.87
11395;BME280;5753;54.402;10.220;2023-02-18T04:17:18;101393.81;;;11.52;77.50
11395;BME280;5753;54.402;10.220;2023-02-18T04:19:44;101396.50;;;11.17;79.81
11395;BME280;5753;54.402;10.220;2023-02-18T04:22:10;101388.25;;;10.94;85.13
11395;BME280;5753;54.402;10.220;2023-02-18T04:24:36;101384.75;;;10.23;88.21
11395;BME280;5753;54.402;10.220;2023-02-18T04:27:03;101383.78;;;10.20;91.04
11395;BME280;5753;54.402;10.220;2023-02-18T04:29:29;101379.81;;;10.65;87.44
11395;BME280;5753;54.402;10.220;2023-02-18T04:31:55;101380.06;;;10.08;92.82
11395;BME280;5753;54.402;10.220;2023-02-18T04:34:21;101385.16;;;11.11;85.26
11395;BME280;5753;54.402;10.220;2023-02-18T04:36:47;101368.03;;;10.77;90.14
11395;BME280;5753;54.402;10.220;2023-02-18T04:39:14;101379.28;;;10.80;87.54
11395;BME280;5753;54.402;10.220;2023-02-18T04:41:40;101367.69;;;10.61;88.93
11395;BME280;5753;54.402;10.220;2023-02-18T04:44:06;101371.97;;;10.97;86.34
11395;BME280;5753;54.402;10.220;2023-02-18T04:46:32;101371.25;;;10.00;93.00
11395;BME280;5753;54.402;10.220;2023-02-18T04:48:58;101377.00;;;10.56;88.57
11395;BME280;5753;54.402;10.220;2023-02-18T04:51:24;101371.34;;;11.48;83.66
11395;BME280;5753;54.402;10.220;2023-02-18T04:53:51;101371.09;;;11.35;81.86
11395;BME280;5753;54.402;10.220;2023-02-18T04:56:17;101368.00;;;12.42;75.84
11395;BME280;5753;54.402;10.220;2023-02-18T04:58:43;101374.78;;;10.71;85.46
11395;BME280;5753;54.402;10.220;2023-02-18T05:01:09;101362.16;;;11.62;81.25
11395;BME280;5753;54.402;10.220;2023-02-18T05:03:36;101365.41;;;11.11;85.31
11395;BME280;5753;54.402;10.220;2023-02-18T05:06:02;101355.72;;;10.65;86.14
11395;BME280;5753;54.402;10.220;2023-02-18T05:08:28;101360.34;;;10.42;87.97
11395;BME280;5753;54.402;10.220;2023-02-18T05:10:54;101358.63;;;11.16;85.69
11395;BME280;5753;54.402;10.220;2023-02-18T05:13:20;101360.78;;;9.94;93.91
11395;BME280;5753;54.402;10.220;2023-02-18T05:15:48;101349.25;;;11.20;85.02
11395;BME280;5753;54.402;10.220;2023-02-18T05:18:14;101339.22;;;11.35;80.82
11395;BME280;5753;54.402;10.220;2023-02-18T05:20:40;101347.56;;;11.64;80.94
11395;BME280;5753;54.402;10.220;2023-02-18T05:23:06;101335.06;;;10.63;88.97
11395;BME280;5753;54.402;10.220;2023-02-18T05:25:32;101339.22;;;11.35;84.66
11395;BME280;5753;54.402;10.220;2023-02-18T05:27:59;101338.69;;;10.71;86.10
11395;BME280;5753;54.402;10.220;2023-02-18T05:30:25;101324.50;;;11.73;81.37
11395;BME280;5753;54.402;10.220;2023-02-18T05:32:51;101328.31;;;11.47;81.98
11395;BME280;5753;54.402;10.220;2023-02-18T05:35:17;101327.00;;;10.48;89.90
11395;BME280;5753;54.402;10.220;2023-02-18T05:37:43;101326.66;;;10.70;85.58
11395;BME280;5753;54.402;10.220;2023-02-18T05:40:10;101326.78;;;10.77;86.91
11395;BME280;5753;54.402;10.220;2023-02-18T05:42:37;101330.13;;;10.72;85.28
11395;BME280;5753;54.402;10.220;2023-02-18T05:45:03;101329.75;;;10.93;83.61
11395;BME280;5753;54.402;10.220;2023-02-18T05:47:29;101325.09;;;11.58;78.39
11395;BME280;5753;54.402;10.220;2023-02-18T05:49:56;101313.34;;;11.30;77.83
11395;BME280;5753;54.402;10.220;2023-02-18T05:52:22;101318.56;;;11.77;75.52
11395;BME280;5753;54.402;10.220;2023-02-18T05:54:48;101314.94;;;10.85;81.88
11395;BME280;5753;54.402;10.220;2023-02-18T05:57:15;101299.44;;;12.14;72.76
11395;BME280;5753;54.402;10.220;2023-02-18T05:59:41;101286.44;;;11.19;78.10
11395;BME280;5753;54.402;10.220;2023-02-18T06:02:07;101279.63;;;11.23;79.48
11395;BME280;5753;54.402;10.220;2023-02-18T06:04:33;101277.72;;;12.56;72.17
11395;BME280;5753;54.402;10.220;2023-02-18T06:06:59;101272.66;;;12.64;68.67
11395;BME280;5753;54.402;10.220;2023-02-18T06:09:26;101281.81;;;12.40;68.06
11395;BME280;5753;54.402;10.220;2023-02-18T06:11:52;101276.75;;;12.49;68.47
11395;BME280;5753;54.402;10.220;2023-02-18T06:14:18;101279.03;;;13.57;62.87
11395;BME280;5753;54.402;10.220;2023-02-18T06:16:44;101277.63;;;12.50;64.33
11395;BME280;5753;54.402;10.220;2023-02-18T06:19:10;101263.66;;;12.99;65.11
11395;BME280;5753;54.402;10.220;2023-02-18T06:21:37;101264.09;;;13.30;63.44
11395;BME280;5753;54.402;10.220;2023-02-18T06:24:03;101269.47;;;12.24;67.55
11395;BME280;5753;54.402;10.220;2023-02-18T06:26:29;101277.25;;;12.83;66.43
11395;BME280;5753;54.402;10.220;2023-02-18T06:28:55;101280.88;;;12.37;69.38
11395;BME280;5753;54.402;10.220;2023-02-18T06:31:22;101277.03;;;12.12;70.86
11395;BME280;5753;54.402;10.220;2023-02-18T06:33:48;101280.34;;;11.58;70.30
11395;BME280;5753;54.402;10.220;2023-02-18T06:36:14;101286.84;;;10.97;77.81
11395;BME280;5753;54.402;10.220;2023-02-18T06:38:42;101288.00;;;11.53;76.20
11395;BME280;5753;54.402;10.220;2023-02-18T06:41:09;101301.88;;;12.05;75.04
11395;BME280;5753;54.402;10.220;2023-02-18T06:43:36;101302.31;;;11.81;75.13
11395;BME280;5753;54.402;10.220;2023-02-18T06:46:03;101289.44;;;10.97;81.33
11395;BME280;5753;54.402;10.220;2023-02-18T06:48:29;101289.63;;;11.06;78.91
11395;BME280;5753;54.402;10.220;2023-02-18T06:50:56;101285.53;;;12.59;69.17
11395;BME280;5753;54.402;10.220;2023-02-18T06:53:22;101285.84;;;11.32;79.13
11395;BME280;5753;54.402;10.220;2023-02-18T06:55:48;101275.69;;;11.84;77.33
11395;BME280;5753;54.402;10.220;2023-02-18T06:58:16;101263.81;;;11.93;70.61
11395;BME280;5753;54.402;10.220;2023-02-18T07:00:42;101252.81;;;13.26;67.06
11395;BME280;5753;54.402;10.220;2023-02-18T07:03:11;101260.19;;;12.37;68.97
11395;BME280;5753;54.402;10.220;2023-02-18T07:05:38;101260.13;;;11.81;72.46
11395;BME280;5753;54.402;10.220;2023-02-18T07:08:04;101254.38;;;12.51;69.91
11395;BME280;5753;54.402;10.220;2023-02-18T07:10:31;101246.06;;;11.66;71.68
11395;BME280;5753;54.402;10.220;2023-02-18T07:12:57;101246.72;;;11.11;79.13
11395;BME280;5753;54.402;10.220;2023-02-18T07:15:23;101242.72;;;10.85;80.30
11395;BME280;5753;54.402;10.220;2023-02-18T07:17:51;101241.72;;;10.78;80.57
11395;BME280;5753;54.402;10.220;2023-02-18T07:20:17;101240.03;;;9.72;89.37
11395;BME280;5753;54.402;10.220;2023-02-18T07:22:44;101230.56;;;11.66;75.83
11395;BME280;5753;54.402;10.220;2023-02-18T07:25:10;101243.47;;;10.05;83.99
11395;BME280;5753;54.402;10.220;2023-02-18T07:27:36;101243.03;;;9.89;88.99
11395;BME280;5753;54.402;10.220;2023-02-18T07:30:02;101243.94;;;11.00;83.21
11395;BME280;5753;54.402;10.220;2023-02-18T07:32:29;101243.16;;;10.64;84.62
11395;BME280;5753;54.402;10.220;2023-02-18T07:34:55;101245.84;;;10.32;86.43
11395;BME280;5753;54.402;10.220;2023-02-18T07:37:21;101245.28;;;11.71;77.44
11395;BME280;5753;54.402;10.220;2023-02-18T07:39:47;101237.06;;;10.60;82.64
11395;BME280;5753;54.402;10.220;2023-02-18T07:42:14;101242.06;;;10.93;81.51
11395;BME280;5753;54.402;10.220;2023-02-18T07:44:40;101240.31;;;10.17;84.98
11395;BME280;5753;54.402;10.220;2023-02-18T07:47:07;101241.25;;;9.52;90.35
11395;BME280;5753;54.402;10.220;2023-02-18T07:49:35;101241.41;;;10.63;82.67
11395;BME280;5753;54.402;10.220;2023-02-18T07:52:01;101233.78;;;9.95;87.67
11395;BME280;5753;54.402;10.220;2023-02-18T07:54:27;101243.81;;;10.94;84.79
11395;BME280;5753;54.402;10.220;2023-02-18T07:56:54;101245.81;;;10.31;87.02
11395;BME280;5753;54.402;10.220;2023-02-18T07:59:20;101228.72;;;10.34;91.05
11395;BME280;5753;54.402;10.220;2023-02-18T08:01:46;101225.34;;;11.17;87.37
11395;BME280;5753;54.402;10.220;2023-02-18T08:04:12;101211.81;;;10.86;83.65
11395;BME280;5753;54.402;10.220;2023-02-18T08:06:42;101206.28;;;12.04;77.29
11395;BME280;5753;54.402;10.220;2023-02-18T08:09:11;101213.06;;;11.49;81.09
11395;BME280;5753;54.402;10.220;2023-02-18T08:11:38;101217.28;;;10.22;88.53
11395;BME280;5753;54.402;10.220;2023-02-18T08:14:04;101229.59;;;10.35;91.10
11395;BME280;5753;54.402;10.220;2023-02-18T08:16:31;101223.59;;;10.73;87.00
11395;BME280;5753;54.402;10.220;2023-02-18T08:18:57;101202.19;;;12.19;79.06
11395;BME280;5753;54.402;10.220;2023-02-18T08:21:24;101197.03;;;11.68;83.13
11395;BME280;5753;54.402;10.220;2023-02-18T08:23:51;101195.28;;;12.17;73.66
11395;BME280;5753;54.402;10.220;2023-02-18T08:26:18;101196.00;;;10.69;83.15
11395;BME280;5753;54.402;10.220;2023-02-18T08:28:45;101185.97;;;11.75;77.83
11395;BME280;5753;54.402;10.220;2023-02-18T08:31:23;101183.13;;;11.13;85.93
11395;BME280;5753;54.402;10.220;2023-02-18T08:33:50;101176.97;;;11.05;85.79
11395;BME280;5753;54.402;10.220;2023-02-18T08:36:17;101165.41;;;12.36;74.97
11395;BME280;5753;54.402;10.220;2023-02-18T08:38:43;101155.84;;;12.98;71.95
11395;BME280;5753;54.402;10.220;2023-02-18T08:41:10;101160.50;;;10.56;85.31
11395;BME280;5753;54.402;10.220;2023-02-18T08:43:36;101157.31;;;11.60;78.54
11395;BME280;5753;54.402;10.220;2023-02-18T08:46:03;101150.41;;;12.77;73.61
11395;BME280;5753;54.402;10.220;2023-02-18T08:48:29;101137.59;;;12.86;71.71
11395;BME280;5753;54.402;10.220;2023-02-18T08:50:56;101139.84;;;13.31;69.11
11395;BME280;5753;54.402;10.220;2023-02-18T08:53:22;101134.44;;;13.14;69.09
11395;BME280;5753;54.402;10.220;2023-02-18T08:55:48;101136.59;;;13.55;67.61
11395;BME280;5753;54.402;10.220;2023-02-18T08:58:14;101130.78;;;13.83;67.13
11395;BME280;5753;54.402;10.220;2023-02-18T09:00:43;101132.56;;;13.91;64.75
11395;BME280;5753;54.402;10.220;2023-02-18T09:03:12;101129.97;;;13.91;66.78
11395;BME280;5753;54.402;10.220;2023-02-18T09:05:39;101121.31;;;13.89;66.43
11395;BME280;5753;54.402;10.220;2023-02-18T09:08:06;101126.56;;;14.01;64.61
11395;BME280;5753;54.402;10.220;2023-02-18T09:10:32;101119.66;;;14.03;64.90
11395;BME280;5753;54.402;10.220;2023-02-18T09:12:59;101126.50;;;13.89;64.82
11395;BME280;5753;54.402;10.220;2023-02-18T09:15:25;101133.88;;;13.40;66.99
11395;BME280;5753;54.402;10.220;2023-02-18T09:17:51;101136.97;;;11.78;76.98
11395;BME280;5753;54.402;10.220;2023-02-18T09:20:19;101136.81;;;11.71;77.60
11395;BME280;5753;54.402;10.220;2023-02-18T09:22:45;101139.19;;;11.57;77.85
11395;BME280;5753;54.402;10.220;2023-02-18T09:25:12;101137.69;;;11.71;79.50
11395;BME280;5753;54.402;10.220;2023-02-18T09:27:38;101134.44;;;12.39;75.81
11395;BME280;5753;54.402;10.220;2023-02-18T09:30:05;101131.25;;;11.97;77.68
11395;BME280;5753;54.402;10.220;2023-02-18T09:32:32;101133.28;;;12.20;77.48
11395;BME280;5753;54.402;10.220;2023-02-18T09:34:58;101121.94;;;12.77;73.68
11395;BME280;5753;54.402;10.220;2023-02-18T09:37:24;101124.59;;;11.59;80.11
11395;BME280;5753;54.402;10.220;2023-02-18T09:39:50;101122.56;;;13.29;72.86
11395;BME280;5753;54.402;10.220;2023-02-18T09:42:17;101117.97;;;11.23;81.24
11395;BME280;5753;54.402;10.220;2023-02-18T09:44:50;101105.22;;;12.46;74.44
11395;BME280;5753;54.402;10.220;2023-02-18T09:50:25;101104.31;;;13.18;67.13
11395;BME280;5753;54.402;10.220;2023-02-18T09:52:49;101089.41;;;12.96;68.07
11395;BME280;5753;54.402;10.220;2023-02-18T09:55:43;101094.72;;;11.75;76.50
11395;BME280;5753;54.402;10.220;2023-02-18T09:58:12;101092.16;;;11.23;78.82
11395;BME280;5753;54.402;10.220;2023-02-18T10:00:42;101077.81;;;12.61;71.62
11395;BME280;5753;54.402;10.220;2023-02-18T10:03:21;101069.16;;;13.43;68.40
11395;BME280;5753;54.402;10.220;2023-02-18T10:06:03;101078.34;;;11.74;73.38
11395;BME280;5753;54.402;10.220;2023-02-18T10:08:36;101069.16;;;11.88;72.55
11395;BME280;5753;54.402;10.220;2023-02-18T10:11:03;101068.41;;;10.91;78.03
11395;BME280;5753;54.402;10.220;2023-02-18T10:13:32;101050.44;;;12.77;68.80
11395;BME280;5753;54.402;10.220;2023-02-18T10:15:58;101040.59;;;13.31;66.08
11395;BME280;5753;54.402;10.220;2023-02-18T10:18:38;101041.59;;;12.58;69.18
11395;BME280;5753;54.402;10.220;2023-02-18T10:21:08;101041.28;;;13.14;67.16
11395;BME280;5753;54.402;10.220;2023-02-18T10:23:41;101031.78;;;14.52;62.97
11395;BME280;5753;54.402;10.220;2023-02-18T10:26:16;101030.13;;;14.93;61.52
11395;BME280;5753;54.402;10.220;2023-02-18T10:28:44;101019.69;;;14.61;61.73
11395;BME280;5753;54.402;10.220;2023-02-18T10:31:16;101012.81;;;14.83;60.35
11395;BME280;5753;54.402;10.220;2023-02-18T10:36:43;101005.75;;;16.07;56.17
11395;BME280;5753;54.402;10.220;2023-02-18T10:45:01;101004.16;;;15.10;57.53
11395;BME280;5753;54.402;10.220;2023-02-18T10:47:42;101002.44;;;15.65;56.54
11395;BME280;5753;54.402;10.220;2023-02-18T10:50:39;101002.41;;;15.59;56.67
11395;BME280;5753;54.402;10.220;2023-02-18T10:53:28;101007.56;;;15.87;56.11
11395;BME280;5753;54.402;10.220;2023-02-18T10:55:56;101004.97;;;15.84;55.75
11395;BME280;5753;54.402;10.220;2023-02-18T11:00:53;101007.63;;;14.68;59.13
11395;BME280;5753;54.402;10.220;2023-02-18T11:03:24;101011.09;;;15.70;57.14
11395;BME280;5753;54.402;10.220;2023-02-18T11:05:57;101012.84;;;15.26;58.05
11395;BME280;5753;54.402;10.220;2023-02-18T11:08:26;100992.91;;;15.69;57.05
11395;BME280;5753;54.402;10.220;2023-02-18T11:10:53;100989.44;;;15.62;57.03
11395;BME280;5753;54.402;10.220;2023-02-18T11:13:28;100986.84;;;15.41;58.10
11395;BME280;5753;54.402;10.220;2023-02-18T11:16:04;100989.34;;;14.42;60.68
11395;BME280;5753;54.402;10.220;2023-02-18T11:18:40;100974.75;;;15.03;60.54
11395;BME280;5753;54.402;10.220;2023-02-18T11:21:28;100977.28;;;15.78;58.35
11395;BME280;5753;54.402;10.220;2023-02-18T11:24:06;100972.13;;;15.37;58.71
11395;BME280;5753;54.402;10.220;2023-02-18T11:26:35;100984.88;;;13.97;61.66
11395;BME280;5753;54.402;10.220;2023-02-18T11:29:31;100983.41;;;15.24;59.40
11395;BME280;5753;54.402;10.220;2023-02-18T11:32:00;100997.34;;;12.31;67.61
11395;BME280;5753;54.402;10.220;2023-02-18T11:34:30;100984.13;;;12.07;68.72
11395;BME280;5753;54.402;10.220;2023-02-18T11:37:09;100991.25;;;12.27;73.89
11395;BME280;5753;54.402;10.220;2023-02-18T11:39:42;101003.59;;;13.48;67.60
11395;BME280;5753;54.402;10.220;2023-02-18T11:42:13;100998.63;;;13.80;63.84
11395;BME280;5753;54.402;10.220;2023-02-18T11:49:43;101007.47;;;14.22;62.29
11395;BME280;5753;54.402;10.220;2023-02-18T11:52:28;101005.84;;;14.52;61.00
11395;BME280;5753;54.402;10.220;2023-02-18T11:55:04;101014.47;;;14.47;60.48
11395;BME280;5753;54.402;10.220;2023-02-18T11:57:36;101016.75;;;13.76;62.28
11395;BME280;5753;54.402;10.220;2023-02-18T12:00:15;101018.72;;;12.98;62.56
11395;BME280;5753;54.402;10.220;2023-02-18T12:02:41;101016.16;;;13.01;62.68
11395;BME280;5753;54.402;10.220;2023-02-18T12:05:21;101025.16;;;12.53;64.65
11395;BME280;5753;54.402;10.220;2023-02-18T12:08:12;101049.69;;;10.56;70.79
11395;BME280;5753;54.402;10.220;2023-02-18T12:10:52;101042.88;;;10.19;72.26
11395;BME280;5753;54.402;10.220;2023-02-18T12:15:58;101057.94;;;10.85;69.57
11395;BME280;5753;54.402;10.220;2023-02-18T12:18:39;101037.84;;;11.72;69.29
11395;BME280;5753;54.402;10.220;2023-02-18T12:40:02;101010.28;;;11.69;62.57
11395;BME280;5753;54.402;10.220;2023-02-18T12:53:57;101046.09;;;10.95;66.08
11395;BME280;5753;54.402;10.220;2023-02-18T12:56:42;101054.44;;;11.83;63.36
11395;BME280;5753;54.402;10.220;2023-02-18T13:07:30;101064.13;;;12.70;60.01
11395;BME280;5753;54.402;10.220;2023-02-18T13:13:35;101073.66;;;12.03;61.81
11395;BME280;5753;54.402;10.220;2023-02-18T13:16:11;101077.84;;;13.51;60.45
11395;BME280;5753;54.402;10.220;2023-02-18T13:18:44;101089.38;;;13.93;59.65
11395;BME280;5753;54.402;10.220;2023-02-18T13:21:14;101085.22;;;13.10;59.32
11395;BME280;5753;54.402;10.220;2023-02-18T13:23:47;101087.28;;;12.59;62.42
11395;BME280;5753;54.402;10.220;2023-02-18T13:26:16;101076.31;;;13.76;60.56
11395;BME280;5753;54.402;10.220;2023-02-18T13:31:16;101079.34;;;14.61;57.68
11395;BME280;5753;54.402;10.220;2023-02-18T13:33:51;101069.09;;;15.60;56.51
11395;BME280;5753;54.402;10.220;2023-02-18T13:41:25;101075.91;;;16.22;51.71
11395;BME280;5753;54.402;10.220;2023-02-18T13:43:52;101081.19;;;15.54;52.88
11395;BME280;5753;54.402;10.220;2023-02-18T13:46:21;101081.31;;;13.53;56.05
11395;BME280;5753;54.402;10.220;2023-02-18T13:54:22;101082.59;;;14.17;54.85
11395;BME280;5753;54.402;10.220;2023-02-18T13:57:05;101078.22;;;14.09;55.29
11395;BME280;5753;54.402;10.220;2023-02-18T13:59:46;101083.75;;;14.88;55.10
11395;BME280;5753;54.402;10.220;2023-02-18T14:04:53;101077.28;;;12.90;57.28
11395;BME280;5753;54.402;10.220;2023-02-18T14:07:44;101057.78;;;14.70;55.29
11395;BME280;5753;54.402;10.220;2023-02-18T14:10:24;101052.84;;;13.56;56.29
11395;BME280;5753;54.402;10.220;2023-02-18T14:25:52;101077.59;;;13.20;58.45
11395;BME280;5753;54.402;10.220;2023-02-18T14:33:33;101109.84;;;11.52;61.80
11395;BME280;5753;54.402;10.220;2023-02-18T14:44:15;101101.88;;;14.68;56.72
11395;BME280;5753;54.402;10.220;2023-02-18T14:49:51;101087.25;;;15.57;53.13
11395;BME280;5753;54.402;10.220;2023-02-18T14:52:37;101095.94;;;15.33;52.85
11395;BME280;5753;54.402;10.220;2023-02-18T14:55:10;101108.09;;;15.76;51.35
11395;BME280;5753;54.402;10.220;2023-02-18T14:57:47;101110.66;;;15.91;51.38
11395;BME280;5753;54.402;10.220;2023-02-18T15:00:21;101120.09;;;14.82;54.32
11395;BME280;5753;54.402;10.220;2023-02-18T15:02:50;101113.94;;;13.30;56.55
11395;BME280;5753;54.402;10.220;2023-02-18T15:05:18;101099.91;;;13.12;58.83
11395;BME280;5753;54.402;10.220;2023-02-18T15:13:21;101137.63;;;12.89;58.66
11395;BME280;5753;54.402;10.220;2023-02-18T15:15:55;101139.53;;;12.34;59.66
11395;BME280;5753;54.402;10.220;2023-02-18T15:18:33;101142.50;;;12.65;59.84
11395;BME280;5753;54.402;10.220;2023-02-18T15:21:03;101157.81;;;11.89;61.98
11395;BME280;5753;54.402;10.220;2023-02-18T15:23:33;101170.22;;;10.69;67.57
11395;BME280;5753;54.402;10.220;2023-02-18T15:26:00;101170.13;;;12.69;61.63
11395;BME280;5753;54.402;10.220;2023-02-18T15:28:32;101168.06;;;13.13;60.26
11395;BME280;5753;54.402;10.220;2023-02-18T15:31:00;101180.69;;;13.63;59.00
11395;BME280;5753;54.402;10.220;2023-02-18T15:33:26;101190.00;;;14.56;56.64
11395;BME280;5753;54.402;10.220;2023-02-18T15:36:01;101202.38;;;15.15;53.91
11395;BME280;5753;54.402;10.220;2023-02-18T15:38:28;101207.53;;;15.06;52.20
11395;BME280;5753;54.402;10.220;2023-02-18T15:40:55;101220.94;;;13.29;56.37